createdAt,value
2022-09-28T00:01:19.287Z,5.43
2022-09-28T00:03:50.753Z,5.30
2022-09-28T00:06:23.595Z,4.57
2022-09-28T00:08:52.335Z,3.97
2022-09-28T00:11:21.860Z,4.10
2022-09-28T00:13:52.601Z,7.40
2022-09-28T00:16:23.965Z,8.13
2022-09-28T00:18:54.823Z,6.87
2022-09-28T00:21:26.242Z,5.07
2022-09-28T00:24:12.699Z,4.13
2022-09-28T00:26:43.707Z,5.03
2022-09-28T00:29:21.276Z,7.53
2022-09-28T00:31:50.512Z,5.55
2022-09-28T00:34:20.547Z,4.60
2022-09-28T00:36:49.514Z,6.03
2022-09-28T00:39:18.698Z,5.00
2022-09-28T00:41:47.505Z,4.50
2022-09-28T00:44:52.109Z,5.30
2022-09-28T00:47:28.502Z,5.33
2022-09-28T00:50:02.662Z,4.93
2022-09-28T00:52:35.637Z,4.13
2022-09-28T00:55:06.942Z,5.37
2022-09-28T00:57:37.066Z,4.00
2022-09-28T01:00:06.914Z,5.67
2022-09-28T01:02:35.246Z,5.33
2022-09-28T01:05:06.546Z,9.10
2022-09-28T01:07:35.907Z,5.80
2022-09-28T01:10:04.817Z,4.07
2022-09-28T01:12:33.078Z,7.00
2022-09-28T01:15:02.330Z,6.40
2022-09-28T01:17:39.937Z,6.20
2022-09-28T01:20:44.343Z,6.70
2022-09-28T01:23:48.902Z,5.03
2022-09-28T01:26:44.165Z,5.53
2022-09-28T01:29:23.419Z,5.57
2022-09-28T01:31:57.827Z,4.63
2022-09-28T01:34:32.467Z,4.07
2022-09-28T01:37:05.560Z,7.57
2022-09-28T01:39:38.487Z,6.00
2022-09-28T01:42:15.730Z,5.77
2022-09-28T01:44:47.086Z,4.87
2022-09-28T01:47:19.137Z,7.53
2022-09-28T01:49:51.497Z,7.40
2022-09-28T01:52:24.324Z,6.00
2022-09-28T01:54:58.229Z,6.67
2022-09-28T01:57:33.053Z,6.13
2022-09-28T02:00:05.546Z,8.37
2022-09-28T02:02:37.486Z,5.90
2022-09-28T02:05:10.158Z,6.80
2022-09-28T02:07:43.721Z,7.47
2022-09-28T02:10:16.621Z,6.10
2022-09-28T02:12:49.950Z,6.73
2022-09-28T02:15:21.704Z,6.60
2022-09-28T02:17:50.546Z,7.17
2022-09-28T02:20:19.581Z,8.17
2022-09-28T02:22:51.650Z,10.37
2022-09-28T02:25:27.569Z,10.50
2022-09-28T02:28:01.176Z,9.17
2022-09-28T02:30:31.289Z,8.50
2022-09-28T02:33:04.656Z,9.10
2022-09-28T02:35:35.128Z,8.97
2022-09-28T02:38:03.418Z,12.47
2022-09-28T02:40:34.586Z,9.47
2022-09-28T02:43:14.309Z,12.70
2022-09-28T02:45:57.732Z,13.17
2022-09-28T02:48:43.983Z,13.07
2022-09-28T02:51:23.055Z,19.67
2022-09-28T02:54:24.284Z,15.60
2022-09-28T02:57:03.678Z,15.73
2022-09-28T02:59:47.762Z,13.87
2022-09-28T03:02:26.984Z,20.50
2022-09-28T03:05:08.986Z,16.63
2022-09-28T03:07:41.522Z,19.43
2022-09-28T03:10:17.870Z,18.90
2022-09-28T03:12:48.486Z,18.13
2022-09-28T03:15:22.507Z,19.73
2022-09-28T03:17:50.769Z,17.70
2022-09-28T03:20:19.302Z,17.20
2022-09-28T03:23:00.471Z,17.80
2022-09-28T03:25:35.887Z,15.20
2022-09-28T03:28:04.101Z,19.13
2022-09-28T03:30:33.712Z,18.27
2022-09-28T03:33:03.307Z,19.40
2022-09-28T03:35:31.586Z,18.50
2022-09-28T03:37:59.850Z,19.80
2022-09-28T03:40:28.271Z,17.60
2022-09-28T03:42:56.672Z,17.87
2022-09-28T03:45:25.058Z,14.50
2022-09-28T03:47:54.760Z,15.87
2022-09-28T03:50:23.052Z,14.57
2022-09-28T03:52:51.312Z,17.03
2022-09-28T03:55:19.614Z,15.87
2022-09-28T03:57:55.058Z,17.70
2022-09-28T04:00:23.944Z,17.37
2022-09-28T04:02:52.204Z,17.10
2022-09-28T04:05:21.957Z,16.63
2022-09-28T04:07:50.227Z,15.37
2022-09-28T04:10:18.515Z,17.23
2022-09-28T04:12:46.896Z,13.90
2022-09-28T04:15:15.223Z,21.37
2022-09-28T04:17:44.901Z,17.90
2022-09-28T04:20:13.131Z,18.90
2022-09-28T04:22:43.397Z,15.97
2022-09-28T04:25:13.792Z,17.50
2022-09-28T04:27:59.435Z,18.97
2022-09-28T04:30:27.766Z,18.47
2022-09-28T04:32:55.955Z,16.10
2022-09-28T04:35:24.211Z,18.73
2022-09-28T04:37:53.837Z,19.67
2022-09-28T04:40:22.099Z,22.60
2022-09-28T04:42:55.043Z,19.27
2022-09-28T04:45:23.639Z,20.07
2022-09-28T04:47:51.876Z,17.70
2022-09-28T04:50:20.141Z,22.03
2022-09-28T04:52:48.356Z,18.13
2022-09-28T04:55:18.094Z,19.70
2022-09-28T04:57:46.340Z,20.63
2022-09-28T05:00:15.717Z,22.17
2022-09-28T05:02:44.089Z,21.30
2022-09-28T05:05:12.494Z,17.60
2022-09-28T05:07:41.902Z,22.37
2022-09-28T05:10:10.461Z,21.03
2022-09-28T05:12:40.142Z,18.43
2022-09-28T05:15:08.953Z,26.43
2022-09-28T05:17:37.203Z,19.80
2022-09-28T05:20:06.138Z,27.83
2022-09-28T05:22:34.669Z,27.43
2022-09-28T05:25:03.565Z,26.67
2022-09-28T05:27:31.883Z,24.03
2022-09-28T05:30:01.553Z,30.40
2022-09-28T05:32:29.817Z,22.90
2022-09-28T05:35:01.173Z,23.13
2022-09-28T05:37:29.386Z,23.27
2022-09-28T05:39:57.708Z,21.47
2022-09-28T05:42:26.023Z,22.00
2022-09-28T05:44:54.310Z,27.33
2022-09-28T05:47:23.940Z,26.73
2022-09-28T05:49:52.593Z,25.97
2022-09-28T05:52:20.906Z,25.73
2022-09-28T05:54:49.797Z,22.77
2022-09-28T05:57:18.018Z,21.58
2022-09-28T05:59:46.346Z,21.30
2022-09-28T06:02:14.699Z,15.83
2022-09-28T06:04:44.700Z,16.77
2022-09-28T06:07:12.975Z,20.70
2022-09-28T06:09:41.167Z,17.50
2022-09-28T06:12:09.779Z,17.80
2022-09-28T06:14:38.996Z,19.20
2022-09-28T06:17:07.290Z,20.27
2022-09-28T06:19:35.751Z,19.93
2022-09-28T06:22:05.391Z,18.40
2022-09-28T06:24:33.702Z,20.80
2022-09-28T06:27:01.951Z,21.17
2022-09-28T06:29:30.252Z,17.90
2022-09-28T06:31:58.544Z,13.47
2022-09-28T06:34:26.753Z,14.53
2022-09-28T06:36:54.988Z,16.20
2022-09-28T06:39:24.747Z,18.73
2022-09-28T06:41:53.032Z,16.43
2022-09-28T06:44:21.473Z,16.93
2022-09-28T06:46:49.724Z,12.40
2022-09-28T06:49:19.599Z,13.10
2022-09-28T06:51:48.002Z,11.27
2022-09-28T06:54:16.246Z,9.53
2022-09-28T06:56:45.955Z,7.60
2022-09-28T06:59:14.282Z,8.07
2022-09-28T07:01:42.619Z,8.60
2022-09-28T07:04:10.949Z,11.07
2022-09-28T07:06:40.818Z,9.90
2022-09-28T07:09:27.261Z,6.67
2022-09-28T07:12:00.513Z,7.07
2022-09-28T07:14:46.249Z,8.90
2022-09-28T07:17:18.365Z,5.60
2022-09-28T07:19:46.674Z,5.47
2022-09-28T07:22:18.767Z,8.13
2022-09-28T07:24:48.952Z,5.50
2022-09-28T07:27:20.030Z,6.60
2022-09-28T07:29:48.296Z,5.93
2022-09-28T07:32:16.569Z,4.93
2022-09-28T07:34:44.783Z,6.60
2022-09-28T07:37:13.547Z,7.07
2022-09-28T07:39:59.420Z,5.03
2022-09-28T07:42:31.260Z,6.17
2022-09-28T07:45:00.090Z,5.90
2022-09-28T07:47:34.663Z,4.97
2022-09-28T07:50:03.559Z,5.83
2022-09-28T07:52:31.897Z,4.90
2022-09-28T07:55:04.552Z,5.83
2022-09-28T07:57:40.010Z,5.90
2022-09-28T08:00:09.307Z,4.27
2022-09-28T08:02:40.120Z,4.90
2022-09-28T08:05:10.116Z,4.37
2022-09-28T08:07:38.588Z,5.13
2022-09-28T08:10:07.802Z,4.70
2022-09-28T08:12:36.071Z,6.53
2022-09-28T08:15:07.557Z,6.47
2022-09-28T08:17:35.897Z,4.67
2022-09-28T08:20:21.824Z,5.60
2022-09-28T08:22:50.111Z,5.70
2022-09-28T08:25:18.377Z,7.55
2022-09-28T08:27:46.634Z,6.55
2022-09-28T08:30:16.408Z,6.80
2022-09-28T08:32:49.511Z,4.75
2022-09-28T08:35:17.794Z,3.72
2022-09-28T08:37:55.492Z,4.63
2022-09-28T08:40:26.254Z,3.88
2022-09-28T08:42:58.717Z,4.65
2022-09-28T08:45:31.627Z,4.63
2022-09-28T08:48:23.390Z,4.60
2022-09-28T08:51:00.948Z,4.75
2022-09-28T08:53:38.560Z,3.30
2022-09-28T08:56:20.682Z,2.58
2022-09-28T08:58:55.628Z,3.50
2022-09-28T09:01:28.604Z,2.25
2022-09-28T09:03:57.551Z,3.05
2022-09-28T09:06:34.447Z,3.67
2022-09-28T09:09:12.021Z,3.13
2022-09-28T09:11:54.989Z,2.30
2022-09-28T09:14:54.283Z,2.70
2022-09-28T09:17:36.429Z,4.53
2022-09-28T09:20:16.642Z,5.25
2022-09-28T09:22:59.983Z,2.50
2022-09-28T09:25:38.429Z,4.90
2022-09-28T09:28:42.105Z,2.50
2022-09-28T09:31:24.259Z,9.80
2022-09-28T09:34:27.028Z,2.72
2022-09-28T09:37:09.542Z,8.18
2022-09-28T09:39:48.606Z,3.13
2022-09-28T09:42:32.145Z,3.72
2022-09-28T09:45:13.494Z,7.97
2022-09-28T09:47:45.354Z,1.17
2022-09-28T09:50:30.106Z,2.70
2022-09-28T09:53:03.678Z,2.70
2022-09-28T09:55:35.390Z,5.65
2022-09-28T09:58:10.303Z,7.00
2022-09-28T10:00:42.450Z,3.80
2022-09-28T10:03:22.715Z,5.10
2022-09-28T10:05:59.351Z,5.35
2022-09-28T10:08:29.498Z,4.28
2022-09-28T10:11:08.800Z,3.78
2022-09-28T10:13:37.127Z,3.28
2022-09-28T10:16:07.365Z,3.33
2022-09-28T10:18:36.241Z,6.07
2022-09-28T10:21:06.310Z,3.47
2022-09-28T10:23:38.779Z,2.72
2022-09-28T10:26:13.486Z,3.10
2022-09-28T10:28:48.664Z,1.63
2022-09-28T10:31:40.344Z,1.55
2022-09-28T10:34:11.461Z,2.03
2022-09-28T10:36:49.501Z,3.15
2022-09-28T10:39:42.581Z,1.98
2022-09-28T10:42:13.427Z,3.63
2022-09-28T10:44:56.255Z,1.40
2022-09-28T10:47:26.894Z,4.57
2022-09-28T10:49:57.252Z,5.32
2022-09-28T10:52:35.525Z,1.88
2022-09-28T10:55:05.201Z,2.55
2022-09-28T10:57:36.752Z,1.92
2022-09-28T11:00:08.198Z,2.58
2022-09-28T11:02:38.068Z,5.25
2022-09-28T11:05:08.375Z,4.18
2022-09-28T11:07:47.461Z,3.03
2022-09-28T11:10:22.398Z,3.00
2022-09-28T11:12:51.917Z,2.17
2022-09-28T11:15:22.438Z,4.25
2022-09-28T11:17:51.152Z,1.63
2022-09-28T11:20:33.453Z,3.13
2022-09-28T11:23:18.816Z,1.30
2022-09-28T11:25:58.757Z,1.60
2022-09-28T11:28:32.821Z,2.63
2022-09-28T11:31:02.784Z,1.58
2022-09-28T11:33:34.051Z,1.58
2022-09-28T11:36:14.706Z,2.03
2022-09-28T11:38:57.985Z,1.75
2022-09-28T11:41:45.154Z,5.38
2022-09-28T11:44:46.490Z,3.30
2022-09-28T11:47:43.562Z,4.20
2022-09-28T11:50:24.352Z,2.88
2022-09-28T11:52:58.993Z,1.27
2022-09-28T11:55:36.146Z,1.15
2022-09-28T11:58:11.380Z,3.17
2022-09-28T12:00:44.865Z,2.50
2022-09-28T12:03:19.755Z,3.38
2022-09-28T12:05:53.079Z,2.53
2022-09-28T12:08:29.008Z,4.95
2022-09-28T12:11:02.895Z,1.30
2022-09-28T12:13:36.220Z,1.60
2022-09-28T12:17:00.935Z,3.33
2022-09-28T12:19:21.372Z,0.80
2022-09-28T12:21:53.934Z,1.52
2022-09-28T12:24:27.356Z,3.85
2022-09-28T12:27:04.432Z,2.08
2022-09-28T12:29:39.289Z,1.10
2022-09-28T12:32:15.452Z,4.72
2022-09-28T12:34:44.206Z,4.75
2022-09-28T12:37:33.588Z,1.88
2022-09-28T12:40:29.821Z,2.45
2022-09-28T12:43:13.990Z,4.05
2022-09-28T12:46:12.067Z,5.20
2022-09-28T12:49:51.574Z,1.17
2022-09-28T12:51:54.696Z,2.70
2022-09-28T12:54:53.909Z,2.08
2022-09-28T12:58:07.468Z,4.32
2022-09-28T13:00:43.412Z,2.00
2022-09-28T13:03:48.080Z,3.28
2022-09-28T13:06:31.044Z,1.63
2022-09-28T13:09:16.562Z,2.05
2022-09-28T13:11:54.565Z,1.98
2022-09-28T13:14:50.317Z,5.40
2022-09-28T13:17:30.887Z,1.88
2022-09-28T13:20:00.631Z,1.42
2022-09-28T13:22:42.179Z,2.05
2022-09-28T13:25:16.650Z,1.55
2022-09-28T13:27:49.355Z,1.80
2022-09-28T13:30:19.549Z,3.08
2022-09-28T13:32:51.073Z,2.28
2022-09-28T13:35:20.576Z,7.47
2022-09-28T13:37:49.532Z,6.00
2022-09-28T13:40:17.964Z,1.95
2022-09-28T13:43:06.511Z,3.97
2022-09-28T13:45:54.150Z,2.85
2022-09-28T13:48:35.783Z,3.83
2022-09-28T13:51:14.094Z,2.70
2022-09-28T13:54:20.031Z,2.28
2022-09-28T13:56:55.228Z,4.20
2022-09-28T13:59:27.120Z,3.00
2022-09-28T14:02:06.926Z,2.80
2022-09-28T14:04:58.822Z,6.28
2022-09-28T14:07:48.252Z,4.00
2022-09-28T14:10:22.147Z,5.03
2022-09-28T14:12:51.564Z,1.77
2022-09-28T14:15:43.840Z,3.45
2022-09-28T14:18:24.657Z,1.77
2022-09-28T14:21:05.675Z,2.50
2022-09-28T14:24:10.343Z,2.50
2022-09-28T14:27:13.614Z,5.90
2022-09-28T14:29:42.672Z,3.25
2022-09-28T14:32:24.915Z,9.25
2022-09-28T14:35:03.817Z,1.92
2022-09-28T14:37:52.238Z,4.72
2022-09-28T14:40:49.541Z,1.33
2022-09-28T14:43:26.300Z,3.70
2022-09-28T14:46:28.905Z,3.92
2022-09-28T14:49:01.792Z,1.95
2022-09-28T14:51:58.723Z,2.55
2022-09-28T14:54:28.670Z,2.35
2022-09-28T14:57:08.979Z,5.50
2022-09-28T14:59:46.242Z,1.92
2022-09-28T15:02:24.807Z,2.97
2022-09-28T15:04:56.354Z,5.20
2022-09-28T15:07:28.733Z,3.25
2022-09-28T15:09:58.320Z,4.25
2022-09-28T15:12:28.688Z,2.13
2022-09-28T15:15:02.278Z,3.88
2022-09-28T15:17:38.486Z,4.28
2022-09-28T15:20:25.339Z,3.03
2022-09-28T15:22:58.462Z,2.42
2022-09-28T15:25:28.625Z,7.45
2022-09-28T15:27:59.206Z,4.00
2022-09-28T15:30:31.940Z,3.35
2022-09-28T15:33:15.706Z,3.58
2022-09-28T15:35:46.095Z,6.13
2022-09-28T15:38:17.617Z,2.50
2022-09-28T15:40:47.622Z,3.38
2022-09-28T15:43:27.006Z,2.88
2022-09-28T15:46:05.911Z,6.03
2022-09-28T15:48:41.939Z,4.78
2022-09-28T15:51:12.005Z,4.38
2022-09-28T15:53:44.903Z,4.78
2022-09-28T15:56:13.665Z,7.38
2022-09-28T15:58:45.281Z,10.23
2022-09-28T16:01:39.882Z,10.38
2022-09-28T16:04:40.411Z,5.72
2022-09-28T16:07:38.512Z,13.48
2022-09-28T16:10:33.580Z,8.38
2022-09-28T16:13:25.719Z,7.15
2022-09-28T16:15:59.945Z,8.43
2022-09-28T16:18:33.819Z,6.38
2022-09-28T16:21:42.922Z,7.65
2022-09-28T16:24:24.145Z,9.68
2022-09-28T16:26:58.590Z,9.05
2022-09-28T16:29:29.399Z,17.83
2022-09-28T16:32:38.417Z,12.05
2022-09-28T16:35:19.797Z,12.85
2022-09-28T16:38:00.265Z,26.33
2022-09-28T16:40:29.765Z,25.40
2022-09-28T16:43:03.342Z,24.50
2022-09-28T16:45:31.777Z,15.45
2022-09-28T16:48:01.668Z,23.50
2022-09-28T16:50:31.483Z,14.45
2022-09-28T16:53:44.169Z,21.58
2022-09-28T16:56:13.707Z,19.85
2022-09-28T16:58:42.627Z,17.15
2022-09-28T17:01:13.873Z,16.75
2022-09-28T17:03:46.832Z,16.80
2022-09-28T17:06:17.421Z,19.13
2022-09-28T17:08:46.220Z,17.17
2022-09-28T17:11:20.418Z,21.15
2022-09-28T17:13:52.212Z,16.75
2022-09-28T17:16:42.633Z,14.23
2022-09-28T17:19:20.615Z,14.30
2022-09-28T17:21:51.715Z,18.15
2022-09-28T17:24:23.022Z,19.38
2022-09-28T17:26:52.862Z,12.20
2022-09-28T17:29:21.447Z,16.45
2022-09-28T17:31:49.783Z,15.43
2022-09-28T17:34:18.141Z,19.38
2022-09-28T17:36:46.730Z,20.20
2022-09-28T17:39:18.587Z,17.02
2022-09-28T17:41:47.328Z,23.15
2022-09-28T17:44:16.416Z,19.38
2022-09-28T17:46:48.828Z,18.15
2022-09-28T17:49:17.717Z,23.20
2022-09-28T17:51:46.240Z,17.10
2022-09-28T17:54:19.998Z,20.65
2022-09-28T17:56:48.546Z,20.30
2022-09-28T17:59:19.025Z,20.00
2022-09-28T18:01:48.357Z,16.23
2022-09-28T18:04:39.876Z,15.27
2022-09-28T18:07:06.101Z,15.00
2022-09-28T18:09:35.760Z,14.10
2022-09-28T18:12:06.483Z,13.43
2022-09-28T18:14:35.913Z,13.18
2022-09-28T18:17:04.528Z,12.60
2022-09-28T18:19:32.818Z,15.75
2022-09-28T18:22:01.416Z,12.68
2022-09-28T18:24:32.481Z,11.40
2022-09-28T18:27:02.226Z,10.50
2022-09-28T18:29:33.301Z,10.52
2022-09-28T18:32:02.610Z,9.65
2022-09-28T18:34:30.855Z,11.60
2022-09-28T18:36:59.143Z,14.60
2022-09-28T18:39:27.707Z,13.93
2022-09-28T18:41:56.001Z,14.85
2022-09-28T18:44:25.709Z,12.45
2022-09-28T18:46:54.574Z,10.05
2022-09-28T18:49:23.062Z,15.65
2022-09-28T18:51:51.384Z,10.75
2022-09-28T18:54:19.688Z,13.23
2022-09-28T18:56:47.977Z,13.55
2022-09-28T18:59:16.452Z,13.18
2022-09-28T19:01:46.190Z,13.45
2022-09-28T19:04:14.457Z,14.20
2022-09-28T19:06:46.367Z,12.02
2022-09-28T19:09:14.988Z,13.75
2022-09-28T19:11:43.389Z,12.93
2022-09-28T19:14:15.100Z,21.23
2022-09-28T19:16:45.979Z,14.70
2022-09-28T19:19:15.594Z,11.43
2022-09-28T19:21:44.416Z,14.10
2022-09-28T19:24:15.323Z,10.32
2022-09-28T19:26:44.336Z,12.70
2022-09-28T19:29:12.812Z,7.15
2022-09-28T19:31:41.713Z,7.57
2022-09-28T19:34:13.517Z,8.38
2022-09-28T19:36:42.998Z,6.28
2022-09-28T19:39:15.049Z,9.80
2022-09-28T19:41:49.416Z,12.52
2022-09-28T19:44:24.455Z,12.85
2022-09-28T19:46:57.337Z,5.47
2022-09-28T19:49:33.265Z,7.90
2022-09-28T19:52:13.472Z,14.30
2022-09-28T19:54:44.000Z,11.00
2022-09-28T19:57:16.071Z,12.98
2022-09-28T19:59:46.669Z,12.10
2022-09-28T20:02:17.862Z,10.93
2022-09-28T20:04:47.625Z,10.55
2022-09-28T20:07:18.669Z,10.73
2022-09-28T20:09:46.935Z,8.68
2022-09-28T20:12:15.167Z,12.52
2022-09-28T20:14:43.512Z,10.18
2022-09-28T20:17:11.786Z,8.93
2022-09-28T20:19:40.047Z,10.90
2022-09-28T20:22:09.730Z,10.05
2022-09-28T20:24:38.033Z,12.68
2022-09-28T20:27:06.809Z,12.90
2022-09-28T20:29:35.371Z,8.63
2022-09-28T20:32:04.337Z,10.63
2022-09-28T20:34:33.630Z,14.98
2022-09-28T20:37:02.452Z,10.60
2022-09-28T20:39:32.109Z,16.95
2022-09-28T20:42:00.399Z,8.40
2022-09-28T20:44:28.653Z,14.80
2022-09-28T20:46:57.374Z,12.45
2022-09-28T20:49:27.202Z,10.27
2022-09-28T20:51:55.593Z,10.40
2022-09-28T20:54:23.855Z,10.65
2022-09-28T20:56:53.732Z,11.20
2022-09-28T20:59:25.900Z,10.47
2022-09-28T21:01:54.537Z,9.33
2022-09-28T21:04:22.838Z,8.70
2022-09-28T21:06:51.094Z,13.33
2022-09-28T21:09:19.359Z,11.43
2022-09-28T21:11:48.174Z,9.97
2022-09-28T21:14:18.605Z,8.47
2022-09-28T21:16:46.856Z,9.33
2022-09-28T21:19:15.103Z,11.10
2022-09-28T21:21:43.371Z,11.47
2022-09-28T21:24:11.881Z,11.32
2022-09-28T21:26:40.120Z,12.20
2022-09-28T21:29:12.452Z,6.68
2022-09-28T21:31:45.706Z,14.67
2022-09-28T21:34:15.296Z,9.10
2022-09-28T21:36:44.199Z,9.37
2022-09-28T21:39:12.578Z,7.03
2022-09-28T21:41:41.415Z,10.83
2022-09-28T21:44:09.967Z,10.10
2022-09-28T21:46:39.453Z,10.70
2022-09-28T21:49:10.904Z,6.60
2022-09-28T21:51:39.194Z,7.77
2022-09-28T21:54:08.226Z,8.50
2022-09-28T21:56:36.503Z,6.33
2022-09-28T21:59:04.820Z,13.30
2022-09-28T22:01:33.141Z,9.87
2022-09-28T22:04:01.699Z,9.83
2022-09-28T22:06:31.354Z,9.17
2022-09-28T22:08:59.620Z,7.40
2022-09-28T22:11:29.498Z,8.77
2022-09-28T22:14:00.079Z,8.07
2022-09-28T22:16:31.230Z,8.90
2022-09-28T22:19:00.113Z,9.93
2022-09-28T22:21:31.925Z,9.10
2022-09-28T22:24:02.030Z,7.37
2022-09-28T22:26:31.850Z,8.13
2022-09-28T22:29:01.581Z,8.53
2022-09-28T22:31:32.301Z,12.00
2022-09-28T22:34:00.806Z,8.00
2022-09-28T22:36:31.107Z,11.90
2022-09-28T22:39:00.437Z,12.17
2022-09-28T22:41:29.040Z,11.03
2022-09-28T22:43:57.549Z,8.60
2022-09-28T22:46:27.486Z,8.37
2022-09-28T22:48:57.885Z,7.67
2022-09-28T22:51:30.016Z,12.10
2022-09-28T22:54:00.122Z,9.67
2022-09-28T22:56:28.625Z,18.70
2022-09-28T22:58:56.943Z,7.03
2022-09-28T23:01:27.588Z,7.13
2022-09-28T23:03:57.221Z,13.60
2022-09-28T23:06:27.182Z,9.60
2022-09-28T23:08:55.511Z,8.80
2022-09-28T23:11:25.213Z,7.43
2022-09-28T23:13:54.464Z,8.53
2022-09-28T23:16:25.700Z,13.00
2022-09-28T23:18:54.760Z,7.77
2022-09-28T23:21:25.025Z,6.23
2022-09-28T23:23:55.299Z,8.97
2022-09-28T23:26:27.913Z,13.03
2022-09-28T23:28:56.756Z,9.13
2022-09-28T23:31:28.067Z,6.50
2022-09-28T23:33:59.696Z,9.63
2022-09-28T23:36:28.123Z,9.67
2022-09-28T23:38:58.093Z,9.93
2022-09-28T23:41:27.795Z,12.03
2022-09-28T23:43:56.021Z,8.47
2022-09-28T23:46:24.600Z,9.02
2022-09-28T23:48:53.016Z,7.18
2022-09-28T23:51:21.216Z,10.33
2022-09-28T23:53:49.423Z,7.82
2022-09-28T23:56:17.691Z,8.70
2022-09-28T23:58:47.324Z,5.68
